createdAt,value
2022-11-25T00:00:08.665Z,4.00
2022-11-25T00:01:12.670Z,3.50
2022-11-25T00:02:16.916Z,4.00
2022-11-25T00:03:21.432Z,3.75
2022-11-25T00:04:25.594Z,3.75
2022-11-25T00:05:30.109Z,4.00
2022-11-25T00:06:34.418Z,4.00
2022-11-25T00:07:38.325Z,4.00
2022-11-25T00:08:42.185Z,4.00
2022-11-25T00:09:46.228Z,3.50
2022-11-25T00:10:50.142Z,4.25
2022-11-25T00:11:54.317Z,4.50
2022-11-25T00:12:58.343Z,4.50
2022-11-25T00:14:02.521Z,4.50
2022-11-25T00:15:06.375Z,4.00
2022-11-25T00:16:10.291Z,3.50
2022-11-25T00:17:14.321Z,3.00
2022-11-25T00:18:18.426Z,3.50
2022-11-25T00:19:22.528Z,2.75
2022-11-25T00:20:26.838Z,3.00
2022-11-25T00:21:30.836Z,3.00
2022-11-25T00:22:34.943Z,3.00
2022-11-25T00:23:39.133Z,4.50
2022-11-25T00:24:43.252Z,4.00
2022-11-25T00:25:47.559Z,4.25
2022-11-25T00:26:51.668Z,4.00
2022-11-25T00:27:55.873Z,3.75
2022-11-25T00:29:00.175Z,4.50
2022-11-25T00:30:04.180Z,4.50
2022-11-25T00:31:08.075Z,4.00
2022-11-25T00:32:12.407Z,3.25
2022-11-25T00:33:16.578Z,4.00
2022-11-25T00:34:23.866Z,4.00
2022-11-25T00:35:27.970Z,3.00
2022-11-25T00:36:32.206Z,3.50
2022-11-25T00:37:36.384Z,4.00
2022-11-25T00:38:40.691Z,3.50
2022-11-25T00:39:44.904Z,3.50
2022-11-25T00:40:48.999Z,3.50
2022-11-25T00:41:53.220Z,3.50
2022-11-25T00:42:57.306Z,4.00
2022-11-25T00:44:01.516Z,3.75
2022-11-25T00:45:05.386Z,4.00
2022-11-25T00:46:09.422Z,5.00
2022-11-25T00:47:13.623Z,5.00
2022-11-25T00:48:17.522Z,4.50
2022-11-25T00:49:21.929Z,4.00
2022-11-25T00:50:26.238Z,4.00
2022-11-25T00:51:30.342Z,4.50
2022-11-25T00:52:34.550Z,5.75
2022-11-25T00:53:38.761Z,5.00
2022-11-25T00:54:42.963Z,4.50
2022-11-25T00:55:47.243Z,5.50
2022-11-25T00:56:51.277Z,5.50
2022-11-25T00:57:55.375Z,5.00
2022-11-25T00:58:59.681Z,4.75
2022-11-25T01:00:03.580Z,5.50
2022-11-25T01:01:07.712Z,5.25
2022-11-25T01:02:12.042Z,5.00
2022-11-25T01:03:16.102Z,4.50
2022-11-25T01:04:20.100Z,5.00
2022-11-25T01:05:24.198Z,6.50
2022-11-25T01:06:28.305Z,6.50
2022-11-25T01:07:32.696Z,5.50
2022-11-25T01:08:36.921Z,5.50
2022-11-25T01:09:41.127Z,5.50
2022-11-25T01:10:45.433Z,7.50
2022-11-25T01:11:49.535Z,7.50
2022-11-25T01:12:53.843Z,6.25
2022-11-25T01:14:01.152Z,6.50
2022-11-25T01:15:03.179Z,5.75
2022-11-25T01:16:07.544Z,5.50
2022-11-25T01:17:11.383Z,6.25
2022-11-25T01:18:15.489Z,4.50
2022-11-25T01:19:20.054Z,6.00
2022-11-25T01:20:23.707Z,5.00
2022-11-25T01:21:27.799Z,6.00
2022-11-25T01:22:32.111Z,5.50
2022-11-25T01:23:36.101Z,5.00
2022-11-25T01:24:40.212Z,6.00
2022-11-25T01:25:44.414Z,5.50
2022-11-25T01:26:48.315Z,5.00
2022-11-25T01:27:52.319Z,5.75
2022-11-25T01:28:56.933Z,6.25
2022-11-25T01:30:01.035Z,6.00
2022-11-25T01:31:05.103Z,6.00
2022-11-25T01:32:09.087Z,6.50
2022-11-25T01:33:12.936Z,5.50
2022-11-25T01:34:16.834Z,3.50
2022-11-25T01:35:20.940Z,4.25
2022-11-25T01:36:25.351Z,4.50
2022-11-25T01:37:29.349Z,5.00
2022-11-25T01:38:33.128Z,5.00
2022-11-25T01:39:37.144Z,4.50
2022-11-25T01:40:41.256Z,4.00
2022-11-25T01:41:45.558Z,4.50
2022-11-25T01:42:49.872Z,5.00
2022-11-25T01:43:53.883Z,4.50
2022-11-25T01:44:58.075Z,4.50
2022-11-25T01:46:02.336Z,5.50
2022-11-25T01:47:06.387Z,5.00
2022-11-25T01:48:10.600Z,4.50
2022-11-25T01:49:14.795Z,4.50
2022-11-25T01:50:18.999Z,4.00
2022-11-25T01:51:23.509Z,3.75
2022-11-25T01:52:27.618Z,4.00
2022-11-25T01:53:31.822Z,4.00
2022-11-25T01:54:36.260Z,4.00
2022-11-25T01:55:40.338Z,4.50
2022-11-25T01:56:44.649Z,3.25
2022-11-25T01:57:48.746Z,4.00
2022-11-25T01:58:52.530Z,3.00
2022-11-25T01:59:56.750Z,3.00
2022-11-25T02:01:00.791Z,3.50
2022-11-25T02:02:05.113Z,3.50
2022-11-25T02:03:09.044Z,3.50
2022-11-25T02:04:13.126Z,4.50
2022-11-25T02:05:16.967Z,4.50
2022-11-25T02:06:20.749Z,4.00
2022-11-25T02:07:24.782Z,4.75
2022-11-25T02:08:28.966Z,3.25
2022-11-25T02:09:32.962Z,3.50
2022-11-25T02:10:37.172Z,4.00
2022-11-25T02:11:41.132Z,4.00
2022-11-25T02:12:45.591Z,3.25
2022-11-25T02:13:49.889Z,3.75
2022-11-25T02:14:54.098Z,4.25
2022-11-25T02:15:58.096Z,4.00
2022-11-25T02:17:02.125Z,4.25
2022-11-25T02:18:06.202Z,4.50
2022-11-25T02:19:10.207Z,3.75
2022-11-25T02:20:14.308Z,3.75
2022-11-25T02:21:18.311Z,4.00
2022-11-25T02:22:22.202Z,4.00
2022-11-25T02:23:25.970Z,3.00
2022-11-25T02:24:29.861Z,3.75
2022-11-25T02:25:33.660Z,4.50
2022-11-25T02:26:37.579Z,4.00
2022-11-25T02:27:41.494Z,4.50
2022-11-25T02:28:45.392Z,4.25
2022-11-25T02:29:49.290Z,4.50
2022-11-25T02:30:53.192Z,5.25
2022-11-25T02:31:57.225Z,5.00
2022-11-25T02:33:01.088Z,4.00
2022-11-25T02:34:04.970Z,3.50
2022-11-25T02:35:08.992Z,3.50
2022-11-25T02:36:12.993Z,3.00
2022-11-25T02:37:17.094Z,4.25
2022-11-25T02:38:21.300Z,4.75
2022-11-25T02:39:25.199Z,5.00
2022-11-25T02:40:29.095Z,3.50
2022-11-25T02:41:33.097Z,3.50
2022-11-25T02:42:36.974Z,4.50
2022-11-25T02:43:40.998Z,5.00
2022-11-25T02:44:44.998Z,4.50
2022-11-25T02:45:49.146Z,4.50
2022-11-25T02:46:53.043Z,4.50
2022-11-25T02:47:56.771Z,3.50
2022-11-25T02:49:08.814Z,4.50
2022-11-25T02:50:05.933Z,5.00
2022-11-25T02:51:09.732Z,3.75
2022-11-25T02:52:13.519Z,3.50
2022-11-25T02:53:17.517Z,3.50
2022-11-25T02:54:21.415Z,4.00
2022-11-25T02:55:25.576Z,3.25
2022-11-25T02:56:29.433Z,4.00
2022-11-25T02:57:33.419Z,3.50
2022-11-25T02:58:37.417Z,4.00
2022-11-25T02:59:41.325Z,4.50
2022-11-25T03:00:45.492Z,5.00
2022-11-25T03:01:49.461Z,4.50
2022-11-25T03:02:53.392Z,3.25
2022-11-25T03:03:57.223Z,4.50
2022-11-25T03:05:00.821Z,4.25
2022-11-25T03:06:04.708Z,4.25
2022-11-25T03:07:08.653Z,4.50
2022-11-25T03:08:12.719Z,4.00
2022-11-25T03:09:16.721Z,4.00
2022-11-25T03:10:20.818Z,4.50
2022-11-25T03:11:24.948Z,4.50
2022-11-25T03:12:29.025Z,4.00
2022-11-25T03:13:33.037Z,3.50
2022-11-25T03:14:37.401Z,2.50
2022-11-25T03:15:41.642Z,4.00
2022-11-25T03:16:46.000Z,3.50
2022-11-25T03:17:50.066Z,3.00
2022-11-25T03:18:54.175Z,2.50
2022-11-25T03:19:58.365Z,4.00
2022-11-25T03:21:02.363Z,4.00
2022-11-25T03:22:06.232Z,4.00
2022-11-25T03:23:10.473Z,3.50
2022-11-25T03:24:14.572Z,3.00
2022-11-25T03:25:18.577Z,3.50
2022-11-25T03:26:22.880Z,3.00
2022-11-25T03:27:30.146Z,3.75
2022-11-25T03:28:32.401Z,3.50
2022-11-25T03:29:36.340Z,2.25
2022-11-25T03:30:40.833Z,2.50
2022-11-25T03:31:45.202Z,3.00
2022-11-25T03:32:49.476Z,2.75
2022-11-25T03:33:53.651Z,2.50
2022-11-25T03:34:57.756Z,2.50
2022-11-25T03:36:01.657Z,3.00
2022-11-25T03:37:05.928Z,3.00
2022-11-25T03:38:10.277Z,3.25
2022-11-25T03:39:14.172Z,3.25
2022-11-25T03:40:18.171Z,3.50
2022-11-25T03:41:22.070Z,2.75
2022-11-25T03:42:25.968Z,4.00
2022-11-25T03:43:30.180Z,4.00
2022-11-25T03:44:34.251Z,3.00
2022-11-25T03:45:38.504Z,3.50
2022-11-25T03:46:42.489Z,4.00
2022-11-25T03:47:46.388Z,4.00
2022-11-25T03:48:50.794Z,3.00
2022-11-25T03:49:55.104Z,2.50
2022-11-25T03:50:59.114Z,3.25
2022-11-25T03:52:03.196Z,3.50
2022-11-25T03:53:07.111Z,2.50
2022-11-25T03:54:11.424Z,4.00
2022-11-25T03:55:15.627Z,2.50
2022-11-25T03:56:19.583Z,1.75
2022-11-25T03:57:23.824Z,2.00
2022-11-25T03:58:28.148Z,3.00
2022-11-25T03:59:32.149Z,3.00
2022-11-25T04:00:36.547Z,2.50
2022-11-25T04:01:44.199Z,3.00
2022-11-25T04:02:45.752Z,2.50
2022-11-25T04:03:49.984Z,1.50
2022-11-25T04:04:55.110Z,3.00
2022-11-25T04:05:59.117Z,3.00
2022-11-25T04:07:03.319Z,3.00
2022-11-25T04:08:07.143Z,3.00
2022-11-25T04:09:12.344Z,2.50
2022-11-25T04:10:16.651Z,2.00
2022-11-25T04:11:20.654Z,2.50
2022-11-25T04:12:24.971Z,2.00
2022-11-25T04:13:29.061Z,1.75
2022-11-25T04:14:33.333Z,3.00
2022-11-25T04:15:37.687Z,2.50
2022-11-25T04:16:42.017Z,2.00
2022-11-25T04:17:45.889Z,2.25
2022-11-25T04:18:50.094Z,2.50
2022-11-25T04:19:53.994Z,3.50
2022-11-25T04:20:58.315Z,3.50
2022-11-25T04:22:02.506Z,3.00
2022-11-25T04:23:06.404Z,3.50
2022-11-25T04:24:10.612Z,3.50
2022-11-25T04:25:14.620Z,2.75
2022-11-25T04:26:19.124Z,3.25
2022-11-25T04:27:23.442Z,4.00
2022-11-25T04:28:27.336Z,4.00
2022-11-25T04:29:31.227Z,3.50
2022-11-25T04:30:35.597Z,2.00
2022-11-25T04:31:39.579Z,2.00
2022-11-25T04:32:43.747Z,1.50
2022-11-25T04:33:52.435Z,3.00
2022-11-25T04:34:53.089Z,3.50
2022-11-25T04:35:56.975Z,3.00
2022-11-25T04:37:00.977Z,2.50
2022-11-25T04:38:04.880Z,2.25
2022-11-25T04:39:08.980Z,4.00
2022-11-25T04:40:12.780Z,4.00
2022-11-25T04:41:16.676Z,4.50
2022-11-25T04:42:20.780Z,5.00
2022-11-25T04:43:24.680Z,4.25
2022-11-25T04:44:28.685Z,4.00
2022-11-25T04:45:51.498Z,3.75
2022-11-25T04:46:37.608Z,4.50
2022-11-25T04:47:41.806Z,4.00
2022-11-25T04:48:45.809Z,3.75
2022-11-25T04:49:49.815Z,4.50
2022-11-25T04:50:53.666Z,4.50
2022-11-25T04:51:57.609Z,4.50
2022-11-25T04:53:01.811Z,4.00
2022-11-25T04:54:05.915Z,3.50
2022-11-25T04:55:09.817Z,3.25
2022-11-25T04:56:13.713Z,3.50
2022-11-25T04:57:17.918Z,4.00
2022-11-25T04:58:21.824Z,4.25
2022-11-25T04:59:25.923Z,4.00
2022-11-25T05:00:29.923Z,3.50
2022-11-25T05:01:33.625Z,2.75
2022-11-25T05:02:37.719Z,4.00
2022-11-25T05:03:46.549Z,4.00
2022-11-25T05:04:46.645Z,3.25
2022-11-25T05:05:50.614Z,4.00
2022-11-25T05:06:54.444Z,3.50
2022-11-25T05:07:58.338Z,3.25
2022-11-25T05:09:02.445Z,4.00
2022-11-25T05:10:06.549Z,4.25
2022-11-25T05:11:10.345Z,3.00
2022-11-25T05:12:14.348Z,4.00
2022-11-25T05:13:18.348Z,4.00
2022-11-25T05:15:39.177Z,4.50
2022-11-25T05:16:43.418Z,4.00
2022-11-25T05:17:47.355Z,3.50
2022-11-25T05:18:51.662Z,4.25
2022-11-25T05:19:55.960Z,4.25
2022-11-25T05:20:59.870Z,4.50
2022-11-25T05:22:04.084Z,5.00
2022-11-25T05:23:11.245Z,4.00
2022-11-25T05:24:15.352Z,4.00
2022-11-25T05:25:19.354Z,3.50
2022-11-25T05:26:23.151Z,4.00
2022-11-25T05:27:27.253Z,3.50
2022-11-25T05:28:31.456Z,4.00
2022-11-25T05:29:35.322Z,3.50
2022-11-25T05:30:39.598Z,3.50
2022-11-25T05:31:43.696Z,2.75
2022-11-25T05:32:47.570Z,4.00
2022-11-25T05:33:51.670Z,3.50
2022-11-25T05:34:58.540Z,4.00
2022-11-25T05:36:02.536Z,4.50
2022-11-25T05:37:06.642Z,4.00
2022-11-25T05:38:10.544Z,3.00
2022-11-25T05:39:14.442Z,3.00
2022-11-25T05:40:18.464Z,3.25
2022-11-25T05:41:22.444Z,3.50
2022-11-25T05:42:26.308Z,4.00
2022-11-25T05:43:30.245Z,3.75
2022-11-25T05:44:34.448Z,4.00
2022-11-25T05:45:38.482Z,5.00
2022-11-25T05:46:42.752Z,5.25
2022-11-25T05:47:46.771Z,5.25
2022-11-25T05:48:51.064Z,5.00
2022-11-25T05:49:55.067Z,5.00
2022-11-25T05:50:59.183Z,4.50
2022-11-25T05:52:03.382Z,5.00
2022-11-25T05:53:07.484Z,5.00
2022-11-25T05:54:11.589Z,4.50
2022-11-25T05:55:15.687Z,4.75
2022-11-25T05:56:19.584Z,5.25
2022-11-25T05:57:23.585Z,4.50
2022-11-25T05:58:27.486Z,4.00
2022-11-25T05:59:31.693Z,4.50
2022-11-25T06:00:35.997Z,2.50
2022-11-25T06:01:40.101Z,4.00
2022-11-25T06:02:44.074Z,4.25
2022-11-25T06:03:48.270Z,4.00
2022-11-25T06:04:52.511Z,4.00
2022-11-25T06:05:56.378Z,3.50
2022-11-25T06:07:00.628Z,3.00
2022-11-25T06:08:04.888Z,3.00
2022-11-25T06:09:08.935Z,3.75
2022-11-25T06:10:13.344Z,4.00
2022-11-25T06:11:17.453Z,4.00
2022-11-25T06:12:21.440Z,4.00
2022-11-25T06:13:27.174Z,2.75
2022-11-25T06:14:31.184Z,3.50
2022-11-25T06:15:35.316Z,3.50
2022-11-25T06:16:39.350Z,3.50
2022-11-25T06:17:43.192Z,3.50
2022-11-25T06:18:47.507Z,4.00
2022-11-25T06:19:51.499Z,4.00
2022-11-25T06:20:55.331Z,4.25
2022-11-25T06:21:59.500Z,3.50
2022-11-25T06:23:03.607Z,4.00
2022-11-25T06:24:07.502Z,3.50
2022-11-25T06:25:11.874Z,3.75
2022-11-25T06:26:15.710Z,4.00
2022-11-25T06:27:19.668Z,3.75
2022-11-25T06:28:23.713Z,3.50
2022-11-25T06:29:27.771Z,4.50
2022-11-25T06:30:31.830Z,4.00
2022-11-25T06:31:36.057Z,4.50
2022-11-25T06:32:39.919Z,4.25
2022-11-25T06:33:43.715Z,3.50
2022-11-25T06:34:47.720Z,3.00
2022-11-25T06:35:51.617Z,3.00
2022-11-25T06:36:55.472Z,3.50
2022-11-25T06:37:59.308Z,4.75
2022-11-25T06:39:02.831Z,4.50
2022-11-25T06:40:06.799Z,3.50
2022-11-25T06:41:10.698Z,4.00
2022-11-25T06:42:14.481Z,4.00
2022-11-25T06:43:18.513Z,4.50
2022-11-25T06:44:22.302Z,4.00
2022-11-25T06:45:26.394Z,4.00
2022-11-25T06:46:30.497Z,4.50
2022-11-25T06:47:34.201Z,3.50
2022-11-25T06:48:38.093Z,4.00
2022-11-25T06:49:41.952Z,4.50
2022-11-25T06:50:45.851Z,3.50
2022-11-25T06:51:49.890Z,3.50
2022-11-25T06:55:27.731Z,4.50
2022-11-25T06:56:32.006Z,3.75
2022-11-25T06:57:36.115Z,4.00
2022-11-25T06:59:49.033Z,3.75
2022-11-25T07:00:53.347Z,4.00
2022-11-25T07:01:57.812Z,4.00
2022-11-25T07:03:01.985Z,3.50
2022-11-25T07:04:08.822Z,4.25
2022-11-25T07:05:12.674Z,4.00
2022-11-25T07:06:16.622Z,4.00
2022-11-25T07:07:20.682Z,4.00
2022-11-25T07:08:26.388Z,4.00
2022-11-25T07:09:29.647Z,3.25
2022-11-25T07:10:33.868Z,2.75
2022-11-25T07:11:37.849Z,4.00
2022-11-25T07:12:42.569Z,4.50
2022-11-25T07:13:46.670Z,5.00
2022-11-25T07:14:50.568Z,4.00
2022-11-25T07:15:54.751Z,4.00
2022-11-25T07:16:59.904Z,3.50
2022-11-25T07:18:03.805Z,4.00
2022-11-25T07:19:07.918Z,3.50
2022-11-25T07:20:12.211Z,3.75
2022-11-25T07:21:16.011Z,3.75
2022-11-25T07:22:20.217Z,3.50
2022-11-25T07:23:24.220Z,3.50
2022-11-25T07:24:28.339Z,2.25
2022-11-25T07:25:32.428Z,3.25
2022-11-25T07:26:36.323Z,3.75
2022-11-25T07:27:40.327Z,2.50
2022-11-25T07:28:44.225Z,3.50
2022-11-25T07:30:10.164Z,5.00
2022-11-25T07:32:10.944Z,3.50
2022-11-25T07:33:15.098Z,3.00
2022-11-25T07:34:20.107Z,3.50
2022-11-25T07:35:23.996Z,3.50
2022-11-25T07:36:27.905Z,3.50
2022-11-25T07:37:31.704Z,3.00
2022-11-25T07:38:35.698Z,4.00
2022-11-25T07:39:39.880Z,4.00
2022-11-25T07:40:43.899Z,4.00
2022-11-25T07:41:47.701Z,2.50
2022-11-25T07:42:51.804Z,4.00
2022-11-25T07:43:55.813Z,4.00
2022-11-25T07:44:59.908Z,4.00
2022-11-25T07:46:03.750Z,4.25
2022-11-25T07:47:07.602Z,3.50
2022-11-25T07:48:11.513Z,3.50
2022-11-25T07:49:15.295Z,2.25
2022-11-25T07:50:19.433Z,2.25
2022-11-25T07:51:23.304Z,2.50
2022-11-25T07:52:27.297Z,3.25
2022-11-25T07:53:31.606Z,3.25
2022-11-25T07:54:35.758Z,2.75
2022-11-25T07:55:39.741Z,3.00
2022-11-25T07:56:43.511Z,3.50
2022-11-25T07:57:47.363Z,3.00
2022-11-25T07:58:51.415Z,3.75
2022-11-25T07:59:55.411Z,3.25
2022-11-25T08:00:59.514Z,3.50
2022-11-25T08:02:03.455Z,3.50
2022-11-25T08:03:07.343Z,4.00
2022-11-25T08:04:14.976Z,4.00
2022-11-25T08:05:16.441Z,4.00
2022-11-25T08:06:20.442Z,4.00
2022-11-25T08:07:24.385Z,4.00
2022-11-25T08:08:28.523Z,4.00
2022-11-25T08:09:32.759Z,4.50
2022-11-25T08:10:36.613Z,3.25
2022-11-25T08:11:40.548Z,3.75
2022-11-25T08:12:44.443Z,4.25
2022-11-25T08:13:48.364Z,3.50
2022-11-25T08:14:52.478Z,3.00
2022-11-25T08:15:56.495Z,3.00
2022-11-25T08:17:00.269Z,3.00
2022-11-25T08:18:04.349Z,3.00
2022-11-25T08:19:08.452Z,3.00
2022-11-25T08:20:12.462Z,3.50
2022-11-25T08:21:16.354Z,2.75
2022-11-25T08:22:20.134Z,3.00
2022-11-25T08:23:24.049Z,4.00
2022-11-25T08:24:27.948Z,2.50
2022-11-25T08:25:32.151Z,4.00
2022-11-25T08:26:35.933Z,3.50
2022-11-25T08:27:39.870Z,2.75
2022-11-25T08:28:43.748Z,3.25
2022-11-25T08:29:47.745Z,4.00
2022-11-25T08:30:51.892Z,2.75
2022-11-25T08:31:55.581Z,3.50
2022-11-25T08:32:59.240Z,3.50
2022-11-25T08:34:03.034Z,3.50
2022-11-25T08:35:06.830Z,4.00
2022-11-25T08:36:10.929Z,3.75
2022-11-25T08:37:14.788Z,3.75
2022-11-25T08:38:18.628Z,4.00
2022-11-25T08:39:51.222Z,5.00
2022-11-25T08:40:27.658Z,6.00
2022-11-25T08:41:31.656Z,7.50
2022-11-25T08:42:35.652Z,6.75
2022-11-25T08:43:39.538Z,4.50
2022-11-25T08:44:43.567Z,2.75
2022-11-25T08:45:47.644Z,4.50
2022-11-25T08:46:51.634Z,4.00
2022-11-25T08:47:55.725Z,3.25
2022-11-25T08:48:59.588Z,3.50
2022-11-25T08:50:03.319Z,4.25
2022-11-25T08:51:07.155Z,4.50
2022-11-25T08:52:10.946Z,4.50
2022-11-25T08:53:14.851Z,4.25
2022-11-25T08:54:18.948Z,4.50
2022-11-25T08:55:23.360Z,4.25
2022-11-25T08:56:27.257Z,4.50
2022-11-25T08:57:31.470Z,4.00
2022-11-25T08:58:35.370Z,4.00
2022-11-25T08:59:39.545Z,4.50
2022-11-25T09:00:43.607Z,5.00
2022-11-25T09:01:47.801Z,5.00
2022-11-25T09:02:51.784Z,4.25
2022-11-25T09:03:55.834Z,3.75
2022-11-25T09:04:59.856Z,5.00
2022-11-25T09:06:04.090Z,3.50
2022-11-25T09:07:07.990Z,3.50
2022-11-25T09:08:12.276Z,2.50
2022-11-25T09:09:16.090Z,3.25
2022-11-25T09:10:19.990Z,4.00
2022-11-25T09:11:23.863Z,4.50
2022-11-25T09:12:27.892Z,4.25
2022-11-25T09:13:31.934Z,4.50
2022-11-25T09:14:35.891Z,3.00
2022-11-25T09:15:39.894Z,3.50
2022-11-25T09:16:43.841Z,3.50
2022-11-25T09:17:47.898Z,4.00
2022-11-25T09:18:55.860Z,3.75
2022-11-25T09:19:56.919Z,4.00
2022-11-25T09:21:00.714Z,4.00
2022-11-25T09:22:04.840Z,3.50
2022-11-25T09:23:08.717Z,3.25
2022-11-25T09:24:12.512Z,3.00
2022-11-25T09:25:16.596Z,4.00
2022-11-25T09:26:20.344Z,3.00
2022-11-25T09:27:24.016Z,3.25
2022-11-25T09:28:27.686Z,3.25
2022-11-25T09:29:31.912Z,3.00
2022-11-25T09:30:35.940Z,3.25
2022-11-25T09:31:39.860Z,2.25
2022-11-25T09:32:43.700Z,3.00
2022-11-25T09:33:47.514Z,2.00
2022-11-25T09:34:51.603Z,2.50
2022-11-25T09:35:55.603Z,4.25
2022-11-25T09:36:59.729Z,5.50
2022-11-25T09:38:03.401Z,4.50
2022-11-25T09:39:07.305Z,4.50
2022-11-25T09:40:11.308Z,4.00
2022-11-25T09:41:15.200Z,4.00
2022-11-25T09:42:19.412Z,2.50
2022-11-25T09:43:23.231Z,3.25
2022-11-25T09:44:27.508Z,4.00
2022-11-25T09:45:31.715Z,3.75
2022-11-25T09:46:35.987Z,5.00
2022-11-25T09:47:45.243Z,4.50
2022-11-25T09:48:45.007Z,4.00
2022-11-25T09:49:49.156Z,4.50
2022-11-25T09:50:53.156Z,4.50
2022-11-25T09:51:57.263Z,5.00
2022-11-25T09:53:01.563Z,5.50
2022-11-25T09:54:05.671Z,6.00
2022-11-25T09:55:09.777Z,4.25
2022-11-25T09:56:13.778Z,4.50
2022-11-25T09:57:17.675Z,4.50
2022-11-25T09:58:21.673Z,4.50
2022-11-25T09:59:25.470Z,5.50
2022-11-25T10:00:29.371Z,4.50
2022-11-25T10:01:33.383Z,4.50
2022-11-25T10:02:37.382Z,5.50
2022-11-25T10:03:41.485Z,3.50
2022-11-25T10:04:45.370Z,4.00
2022-11-25T10:05:49.738Z,5.00
2022-11-25T10:06:55.737Z,5.00
2022-11-25T10:07:59.116Z,4.50
2022-11-25T10:09:03.117Z,4.50
2022-11-25T10:10:07.039Z,4.50
2022-11-25T10:11:10.898Z,5.00
2022-11-25T10:12:14.711Z,4.75
2022-11-25T10:13:18.608Z,4.00
2022-11-25T10:14:22.427Z,4.25
2022-11-25T10:15:26.114Z,4.75
2022-11-25T10:16:30.182Z,4.50
2022-11-25T10:17:34.304Z,4.50
2022-11-25T10:18:38.102Z,5.50
2022-11-25T10:19:42.210Z,6.00
2022-11-25T10:20:46.004Z,5.25
2022-11-25T10:21:49.697Z,5.00
2022-11-25T10:22:53.801Z,4.50
2022-11-25T10:23:57.896Z,5.00
2022-11-25T10:25:01.800Z,5.00
2022-11-25T10:26:05.815Z,4.50
2022-11-25T10:27:10.010Z,3.75
2022-11-25T10:28:14.010Z,3.75
2022-11-25T10:29:17.906Z,4.50
2022-11-25T10:30:21.701Z,5.00
2022-11-25T10:31:25.619Z,4.75
2022-11-25T10:32:29.519Z,6.00
2022-11-25T10:33:33.810Z,6.50
2022-11-25T10:34:37.828Z,5.00
2022-11-25T10:35:42.021Z,5.00
2022-11-25T10:36:45.917Z,4.75
2022-11-25T10:37:49.812Z,4.75
2022-11-25T10:38:53.720Z,4.50
2022-11-25T10:39:57.622Z,3.25
2022-11-25T10:41:01.815Z,4.50
2022-11-25T10:42:05.689Z,4.00
2022-11-25T10:43:09.517Z,5.25
2022-11-25T10:44:13.544Z,4.50
2022-11-25T10:45:17.213Z,4.25
2022-11-25T10:46:21.356Z,5.00
2022-11-25T10:47:25.237Z,4.00
2022-11-25T10:48:29.212Z,4.00
2022-11-25T10:49:33.315Z,4.50
2022-11-25T10:50:37.417Z,4.00
2022-11-25T10:51:41.416Z,4.00
2022-11-25T10:52:45.525Z,4.50
2022-11-25T10:53:49.726Z,4.00
2022-11-25T10:54:53.522Z,3.75
2022-11-25T10:55:57.629Z,4.25
2022-11-25T10:57:01.734Z,4.00
2022-11-25T10:58:05.734Z,4.50
2022-11-25T10:59:09.530Z,5.00
2022-11-25T11:00:17.133Z,5.50
2022-11-25T11:01:18.277Z,4.50
2022-11-25T11:02:22.274Z,5.00
2022-11-25T11:03:26.178Z,5.00
2022-11-25T11:04:30.053Z,5.50
2022-11-25T11:05:33.740Z,5.50
2022-11-25T11:06:37.535Z,4.50
2022-11-25T11:07:41.592Z,5.00
2022-11-25T11:08:45.344Z,5.00
2022-11-25T11:09:49.455Z,5.50
2022-11-25T11:10:57.160Z,4.00
2022-11-25T11:11:58.273Z,4.25
2022-11-25T11:13:02.157Z,3.50
2022-11-25T11:14:06.154Z,4.50
2022-11-25T11:15:09.850Z,4.00
2022-11-25T11:16:13.639Z,4.00
2022-11-25T11:17:17.441Z,4.00
2022-11-25T11:18:21.236Z,4.50
2022-11-25T11:19:25.044Z,3.25
2022-11-25T11:20:29.030Z,4.00
2022-11-25T11:21:32.937Z,4.00
2022-11-25T11:22:36.729Z,4.50
2022-11-25T11:23:40.833Z,4.75
2022-11-25T11:24:44.940Z,5.00
2022-11-25T11:25:48.639Z,5.50
2022-11-25T11:26:52.333Z,5.00
2022-11-25T11:27:56.146Z,5.00
2022-11-25T11:29:00.429Z,5.00
2022-11-25T11:30:04.350Z,4.25
2022-11-25T11:31:08.581Z,4.50
2022-11-25T11:32:12.502Z,4.00
2022-11-25T11:33:16.432Z,4.00
2022-11-25T11:34:20.433Z,4.75
2022-11-25T11:35:24.256Z,5.00
2022-11-25T11:36:28.129Z,5.75
2022-11-25T11:37:31.930Z,4.50
2022-11-25T11:38:35.925Z,6.00
2022-11-25T11:39:40.135Z,4.75
2022-11-25T11:40:44.135Z,4.00
2022-11-25T11:41:47.868Z,4.75
2022-11-25T11:42:51.729Z,4.25
2022-11-25T11:43:55.612Z,6.00
2022-11-25T11:44:59.743Z,5.50
2022-11-25T11:46:03.422Z,5.50
2022-11-25T11:47:07.545Z,6.50
2022-11-25T11:48:11.528Z,7.25
2022-11-25T11:49:15.425Z,5.50
2022-11-25T11:50:19.223Z,5.50
2022-11-25T11:51:23.018Z,4.75
2022-11-25T11:52:26.819Z,4.00
2022-11-25T11:53:30.466Z,4.50
2022-11-25T11:54:34.447Z,3.50
2022-11-25T11:55:38.618Z,4.50
2022-11-25T11:56:42.635Z,5.50
2022-11-25T11:57:46.617Z,6.00
2022-11-25T11:58:50.720Z,4.25
2022-11-25T11:59:54.511Z,4.50
2022-11-25T12:00:58.951Z,5.50
2022-11-25T12:02:04.222Z,5.00
2022-11-25T12:03:07.990Z,4.25
2022-11-25T12:04:11.712Z,4.50
2022-11-25T12:05:15.439Z,5.50
2022-11-25T12:06:19.241Z,5.00
2022-11-25T12:07:23.301Z,7.25
2022-11-25T12:08:27.138Z,6.75
2022-11-25T12:09:30.929Z,4.50
2022-11-25T12:10:34.717Z,5.00
2022-11-25T12:11:38.523Z,6.00
2022-11-25T12:12:42.304Z,5.25
2022-11-25T12:13:46.219Z,5.50
2022-11-25T12:14:50.326Z,5.00
2022-11-25T12:15:54.263Z,5.25
2022-11-25T12:16:58.325Z,5.00
2022-11-25T12:18:02.326Z,4.00
2022-11-25T12:19:06.225Z,4.50
2022-11-25T12:20:10.014Z,5.50
2022-11-25T12:21:13.921Z,4.25
2022-11-25T12:22:17.599Z,4.25
2022-11-25T12:23:21.410Z,4.25
2022-11-25T12:24:25.311Z,5.00
2022-11-25T12:25:29.309Z,4.00
2022-11-25T12:26:33.415Z,3.50
2022-11-25T12:27:37.635Z,5.00
2022-11-25T12:28:41.822Z,5.00
2022-11-25T12:29:45.928Z,5.00
2022-11-25T12:30:50.034Z,4.25
2022-11-25T12:31:54.186Z,4.00
2022-11-25T12:32:58.049Z,4.50
2022-11-25T12:34:02.240Z,4.50
2022-11-25T12:35:06.211Z,4.75
2022-11-25T12:36:10.295Z,4.50
2022-11-25T12:37:15.318Z,3.75
2022-11-25T12:38:19.585Z,4.00
2022-11-25T12:39:23.373Z,5.00
2022-11-25T12:40:27.268Z,4.00
2022-11-25T12:41:34.346Z,4.25
2022-11-25T12:42:38.649Z,5.00
2022-11-25T12:43:42.672Z,4.50
2022-11-25T12:44:46.660Z,4.50
2022-11-25T12:45:50.818Z,4.75
2022-11-25T12:46:54.464Z,4.00
2022-11-25T12:47:58.658Z,4.50
2022-11-25T12:49:02.860Z,5.50
2022-11-25T12:50:07.088Z,5.25
2022-11-25T12:51:11.377Z,5.00
2022-11-25T12:52:15.380Z,5.50
2022-11-25T12:53:19.087Z,4.25
2022-11-25T12:54:22.973Z,4.00
2022-11-25T12:55:26.919Z,4.00
2022-11-25T12:56:30.664Z,4.50
2022-11-25T12:57:34.564Z,5.00
2022-11-25T12:58:38.522Z,4.00
2022-11-25T12:59:42.467Z,5.50
2022-11-25T13:00:46.333Z,5.25
2022-11-25T13:01:50.261Z,5.00
2022-11-25T13:02:54.624Z,5.00
2022-11-25T13:03:58.879Z,5.00
2022-11-25T13:05:32.945Z,4.50
2022-11-25T13:06:08.020Z,4.50
2022-11-25T13:07:11.759Z,4.50
2022-11-25T13:08:18.672Z,4.25
2022-11-25T13:09:22.472Z,5.00
2022-11-25T13:10:26.467Z,5.00
2022-11-25T13:11:30.571Z,4.00
2022-11-25T13:12:35.581Z,4.50
2022-11-25T13:13:40.081Z,5.50
2022-11-25T13:14:45.065Z,4.50
2022-11-25T13:15:50.318Z,4.50
2022-11-25T13:16:55.381Z,4.50
2022-11-25T13:17:59.950Z,4.50
2022-11-25T13:19:04.007Z,5.00
2022-11-25T13:20:08.131Z,4.50
2022-11-25T13:21:12.325Z,5.50
2022-11-25T13:22:16.315Z,5.50
2022-11-25T13:23:20.072Z,5.00
2022-11-25T13:24:24.113Z,6.00
2022-11-25T13:25:27.909Z,5.00
2022-11-25T13:26:31.669Z,4.00
2022-11-25T13:27:36.121Z,5.50
2022-11-25T13:28:40.348Z,5.50
2022-11-25T13:29:44.421Z,5.60
2022-11-25T13:30:48.543Z,6.00
2022-11-25T13:31:56.002Z,5.50
2022-11-25T13:32:58.177Z,5.00
2022-11-25T13:34:02.170Z,5.00
2022-11-25T13:35:06.171Z,6.50
2022-11-25T13:36:10.786Z,5.25
2022-11-25T13:37:14.684Z,6.00
2022-11-25T13:38:18.898Z,5.25
2022-11-25T13:39:22.689Z,5.00
2022-11-25T13:40:26.790Z,5.25
2022-11-25T13:41:30.700Z,6.00
2022-11-25T13:42:34.238Z,5.25
2022-11-25T13:43:38.102Z,5.50
2022-11-25T13:44:41.731Z,6.00
2022-11-25T13:45:45.372Z,5.75
2022-11-25T13:46:49.008Z,6.00
2022-11-25T13:47:53.045Z,6.00
2022-11-25T13:48:56.872Z,6.00
2022-11-25T13:50:00.650Z,7.00
2022-11-25T13:51:11.239Z,5.50
2022-11-25T13:52:09.780Z,5.50
2022-11-25T13:53:13.574Z,6.00
2022-11-25T13:54:17.511Z,5.00
2022-11-25T13:55:21.270Z,5.00
2022-11-25T13:56:25.167Z,4.75
2022-11-25T13:57:29.033Z,6.00
2022-11-25T13:58:32.962Z,5.50
2022-11-25T13:59:37.189Z,4.75
2022-11-25T14:00:41.222Z,6.00
2022-11-25T14:01:45.448Z,5.50
2022-11-25T14:02:49.925Z,5.50
2022-11-25T14:03:54.076Z,6.00
2022-11-25T14:04:58.213Z,5.50
2022-11-25T14:06:02.406Z,6.00
2022-11-25T14:07:06.954Z,6.50
2022-11-25T14:08:10.820Z,6.00
2022-11-25T14:09:14.921Z,6.00
2022-11-25T14:10:18.924Z,6.00
2022-11-25T14:11:29.898Z,6.00
2022-11-25T14:12:34.099Z,5.25
2022-11-25T14:13:38.400Z,5.00
2022-11-25T14:14:48.061Z,6.00
2022-11-25T14:15:47.636Z,6.00
2022-11-25T14:16:51.683Z,5.75
2022-11-25T14:17:55.633Z,6.50
2022-11-25T14:20:04.557Z,6.00